createdAt,value
2022-11-01T00:02:24.072Z,15.43
2022-11-01T00:04:56.117Z,15.70
2022-11-01T00:07:25.269Z,10.80
2022-11-01T00:09:54.520Z,25.05
2022-11-01T00:12:23.541Z,13.75
2022-11-01T00:14:52.729Z,9.63
2022-11-01T00:17:21.900Z,8.88
2022-11-01T00:19:50.799Z,25.00
2022-11-01T00:22:22.762Z,17.98
2022-11-01T00:24:54.830Z,18.10
2022-11-01T00:27:24.204Z,13.65
2022-11-01T00:29:53.268Z,17.45
2022-11-01T00:32:22.350Z,11.63
2022-11-01T00:34:51.718Z,18.42
2022-11-01T00:37:22.282Z,8.25
2022-11-01T00:39:51.422Z,17.42
2022-11-01T00:42:20.356Z,13.27
2022-11-01T00:44:49.808Z,15.88
2022-11-01T00:47:18.797Z,13.95
2022-11-01T00:49:47.744Z,14.20
2022-11-01T00:52:16.804Z,17.63
2022-11-01T00:54:47.214Z,12.30
2022-11-01T00:57:16.183Z,13.90
2022-11-01T00:59:45.138Z,14.35
2022-11-01T01:02:14.359Z,10.90
2022-11-01T01:04:43.570Z,15.77
2022-11-01T01:07:13.747Z,9.27
2022-11-01T01:09:42.891Z,11.20
2022-11-01T01:12:13.486Z,10.57
2022-11-01T01:14:42.575Z,7.20
2022-11-01T01:17:11.592Z,12.68
2022-11-01T01:19:40.745Z,12.15
2022-11-01T01:22:10.052Z,8.40
2022-11-01T01:24:44.977Z,7.75
2022-11-01T01:27:16.491Z,10.65
2022-11-01T01:29:45.886Z,10.27
2022-11-01T01:32:16.434Z,16.15
2022-11-01T01:34:45.570Z,11.70
2022-11-01T01:37:16.242Z,9.35
2022-11-01T01:39:45.619Z,10.60
2022-11-01T01:42:25.595Z,11.20
2022-11-01T01:45:37.184Z,11.50
2022-11-01T01:48:19.081Z,7.75
2022-11-01T01:50:59.544Z,6.07
2022-11-01T01:53:34.289Z,10.93
2022-11-01T01:56:07.576Z,8.63
2022-11-01T01:58:44.682Z,12.30
2022-11-01T02:01:14.093Z,11.30
2022-11-01T02:03:45.119Z,10.68
2022-11-01T02:06:17.136Z,8.15
2022-11-01T02:08:51.419Z,6.60
2022-11-01T02:11:22.391Z,12.05
2022-11-01T02:13:53.422Z,10.88
2022-11-01T02:16:44.312Z,11.30
2022-11-01T02:20:00.048Z,11.25
2022-11-01T02:23:00.399Z,13.45
2022-11-01T02:26:02.530Z,10.38
2022-11-01T02:28:55.658Z,8.73
2022-11-01T02:31:58.307Z,4.15
2022-11-01T02:34:35.951Z,16.08
2022-11-01T02:37:16.249Z,10.52
2022-11-01T02:39:53.740Z,9.93
2022-11-01T02:42:29.428Z,9.48
2022-11-01T02:45:07.614Z,13.55
2022-11-01T02:47:38.158Z,10.15
2022-11-01T02:50:13.123Z,10.52
2022-11-01T02:52:43.547Z,18.77
2022-11-01T02:55:30.199Z,11.50
2022-11-01T02:58:03.659Z,12.95
2022-11-01T03:00:36.233Z,3.33
2022-11-01T03:03:15.617Z,9.50
2022-11-01T03:06:07.545Z,8.30
2022-11-01T03:08:42.443Z,9.23
2022-11-01T03:11:17.189Z,14.98
2022-11-01T03:14:01.854Z,6.43
2022-11-01T03:16:37.232Z,14.90
2022-11-01T03:19:18.346Z,8.88
2022-11-01T03:22:01.120Z,10.60
2022-11-01T03:24:38.122Z,10.90
2022-11-01T03:27:17.230Z,6.18
2022-11-01T03:29:57.285Z,15.30
2022-11-01T03:32:33.905Z,17.92
2022-11-01T03:35:06.573Z,10.65
2022-11-01T03:37:42.614Z,12.70
2022-11-01T03:40:16.171Z,12.55
2022-11-01T03:42:50.031Z,9.88
2022-11-01T03:45:25.395Z,11.30
2022-11-01T03:47:54.732Z,9.73
2022-11-01T03:50:27.199Z,14.20
2022-11-01T03:52:58.066Z,13.38
2022-11-01T03:55:27.397Z,9.48
2022-11-01T03:57:59.147Z,9.15
2022-11-01T04:00:30.775Z,14.57
2022-11-01T04:03:01.608Z,19.35
2022-11-01T04:05:35.627Z,20.70
2022-11-01T04:08:07.513Z,13.05
2022-11-01T04:10:36.891Z,13.50
2022-11-01T04:13:06.133Z,18.75
2022-11-01T04:15:52.731Z,9.52
2022-11-01T04:18:41.576Z,30.67
2022-11-01T04:21:15.253Z,14.50
2022-11-01T04:23:47.409Z,9.52
2022-11-01T04:26:19.276Z,10.30
2022-11-01T04:28:57.332Z,12.48
2022-11-01T04:36:26.550Z,4.38
2022-11-01T04:38:59.171Z,13.88
2022-11-01T04:41:31.042Z,15.85
2022-11-01T04:44:01.198Z,10.07
2022-11-01T04:46:32.935Z,23.15
2022-11-01T04:49:01.952Z,21.30
2022-11-01T04:51:31.489Z,8.77
2022-11-01T04:54:02.216Z,9.05
2022-11-01T04:56:31.354Z,7.43
2022-11-01T04:59:00.341Z,17.13
2022-11-01T05:01:29.446Z,23.73
2022-11-01T05:03:58.522Z,14.52
2022-11-01T05:06:27.627Z,14.30
2022-11-01T05:08:57.210Z,16.17
2022-11-01T05:11:27.752Z,22.70
2022-11-01T05:13:57.017Z,10.95
2022-11-01T05:16:26.061Z,20.60
2022-11-01T05:18:55.045Z,13.43
2022-11-01T05:21:26.802Z,22.38
2022-11-01T05:23:55.963Z,13.98
2022-11-01T05:26:28.027Z,26.13
2022-11-01T05:28:57.172Z,12.32
2022-11-01T05:31:26.217Z,17.30
2022-11-01T05:33:55.434Z,13.68
2022-11-01T05:36:26.049Z,12.82
2022-11-01T05:38:58.804Z,12.00
2022-11-01T05:41:29.876Z,15.15
2022-11-01T05:43:59.218Z,16.30
2022-11-01T05:46:28.326Z,22.50
2022-11-01T05:48:57.539Z,19.70
2022-11-01T05:51:27.001Z,21.58
2022-11-01T05:53:56.308Z,21.70
2022-11-01T05:56:25.404Z,21.20
2022-11-01T05:58:55.855Z,28.02
2022-11-01T06:01:24.900Z,20.33
2022-11-01T06:03:53.977Z,19.13
2022-11-01T06:06:23.170Z,19.25
2022-11-01T06:08:52.099Z,22.35
2022-11-01T06:11:21.042Z,12.18
2022-11-01T06:13:53.882Z,15.32
2022-11-01T06:16:25.653Z,8.43
2022-11-01T06:18:55.618Z,18.67
2022-11-01T06:21:27.631Z,13.80
2022-11-01T06:23:59.281Z,13.50
2022-11-01T06:26:28.268Z,12.55
2022-11-01T06:28:58.598Z,26.80
2022-11-01T06:31:29.090Z,12.85
2022-11-01T06:33:58.549Z,14.32
2022-11-01T06:36:27.822Z,22.77
2022-11-01T06:38:56.808Z,15.77
2022-11-01T06:41:25.868Z,18.02
2022-11-01T06:43:55.028Z,17.35
2022-11-01T06:46:23.962Z,22.83
2022-11-01T06:48:54.601Z,14.98
2022-11-01T06:51:24.120Z,32.35
2022-11-01T06:53:53.322Z,12.82
2022-11-01T06:56:22.401Z,25.15
2022-11-01T06:58:52.117Z,24.83
2022-11-01T07:01:22.504Z,15.50
2022-11-01T07:03:54.249Z,20.83
2022-11-01T07:06:24.455Z,16.15
2022-11-01T07:08:53.528Z,13.13
2022-11-01T07:11:24.380Z,17.88
2022-11-01T07:13:56.837Z,21.45
2022-11-01T07:16:25.815Z,13.75
2022-11-01T07:18:56.738Z,21.60
2022-11-01T07:21:26.381Z,18.92
2022-11-01T07:23:55.599Z,20.38
2022-11-01T07:26:24.705Z,12.48
2022-11-01T07:28:53.816Z,8.95
2022-11-01T07:31:22.960Z,16.02
2022-11-01T07:33:51.984Z,15.27
2022-11-01T07:36:22.403Z,15.45
2022-11-01T07:38:51.705Z,27.92
2022-11-01T07:41:20.607Z,16.73
2022-11-01T07:43:50.994Z,20.55
2022-11-01T07:46:20.046Z,21.23
2022-11-01T07:48:51.207Z,17.08
2022-11-01T07:51:21.898Z,23.73
2022-11-01T07:53:51.226Z,17.15
2022-11-01T07:56:22.854Z,23.75
2022-11-01T07:58:52.020Z,18.27
2022-11-01T08:01:21.164Z,18.05
2022-11-01T08:03:50.169Z,10.95
2022-11-01T08:06:19.455Z,14.93
2022-11-01T08:08:50.017Z,14.68
2022-11-01T08:11:19.166Z,15.75
2022-11-01T08:13:48.278Z,11.02
2022-11-01T08:16:18.481Z,16.95
2022-11-01T08:18:47.501Z,19.02
2022-11-01T08:21:19.050Z,14.73
2022-11-01T08:23:49.661Z,8.55
2022-11-01T08:26:18.689Z,17.98
2022-11-01T08:28:47.647Z,21.83
2022-11-01T08:31:16.801Z,9.52
2022-11-01T08:33:45.796Z,16.77
2022-11-01T08:36:15.530Z,17.40
2022-11-01T08:38:44.727Z,11.75
2022-11-01T08:41:15.258Z,6.47
2022-11-01T08:43:44.345Z,32.35
2022-11-01T08:46:13.785Z,19.85
2022-11-01T08:48:42.774Z,22.15
2022-11-01T08:51:12.379Z,15.05
2022-11-01T08:53:41.651Z,15.73
2022-11-01T08:56:10.647Z,17.30
2022-11-01T08:58:41.161Z,9.80
2022-11-01T09:01:10.288Z,14.15
2022-11-01T09:03:39.469Z,18.50
2022-11-01T09:06:08.953Z,19.08
2022-11-01T09:08:38.333Z,18.42
2022-11-01T09:11:07.783Z,12.57
2022-11-01T09:13:38.490Z,9.93
2022-11-01T09:16:10.056Z,16.20
2022-11-01T09:18:39.496Z,18.98
2022-11-01T09:21:08.605Z,18.63
2022-11-01T09:23:38.900Z,18.10
2022-11-01T09:26:11.477Z,7.28
2022-11-01T09:28:40.807Z,20.70
2022-11-01T09:31:21.989Z,10.02
2022-11-01T09:33:51.271Z,9.45
2022-11-01T09:36:21.460Z,18.35
2022-11-01T09:38:50.613Z,7.28
2022-11-01T09:41:33.692Z,12.73
2022-11-01T09:44:08.380Z,11.73
2022-11-01T09:46:48.312Z,7.07
2022-11-01T09:49:24.577Z,9.18
2022-11-01T09:51:53.778Z,8.27
2022-11-01T09:54:26.437Z,9.32
2022-11-01T09:57:13.738Z,10.00
2022-11-01T09:59:59.730Z,17.77
2022-11-01T10:03:23.708Z,12.32
2022-11-01T10:06:05.530Z,7.40
2022-11-01T10:08:54.530Z,15.23
2022-11-01T10:11:45.368Z,12.45
2022-11-01T10:14:35.991Z,14.52
2022-11-01T10:17:15.473Z,9.05
2022-11-01T10:19:50.751Z,9.30
2022-11-01T10:22:33.689Z,13.13
2022-11-01T10:25:10.368Z,16.45
2022-11-01T10:28:04.935Z,13.38
2022-11-01T10:30:41.367Z,12.95
2022-11-01T10:33:30.925Z,14.82
2022-11-01T10:36:05.776Z,12.82
2022-11-01T10:39:16.585Z,9.05
2022-11-01T10:41:39.291Z,14.32
2022-11-01T10:44:17.876Z,18.25
2022-11-01T10:46:52.878Z,12.00
2022-11-01T10:49:40.511Z,11.20
2022-11-01T10:52:25.939Z,6.63
2022-11-01T10:54:58.844Z,9.85
2022-11-01T10:57:39.197Z,16.92
2022-11-01T11:00:18.051Z,15.50
2022-11-01T11:02:51.315Z,14.65
2022-11-01T11:05:25.023Z,23.30
2022-11-01T11:07:57.944Z,8.15
2022-11-01T11:10:30.778Z,16.35
2022-11-01T11:13:06.019Z,13.90
2022-11-01T11:15:46.002Z,15.68
2022-11-01T11:18:26.541Z,11.05
2022-11-01T11:21:00.897Z,6.35
2022-11-01T11:23:34.897Z,11.65
2022-11-01T11:26:06.422Z,5.75
2022-11-01T11:28:46.360Z,9.30
2022-11-01T11:31:22.820Z,9.20
2022-11-01T11:33:56.221Z,5.75
2022-11-01T11:36:36.831Z,6.63
2022-11-01T11:39:08.590Z,7.07
2022-11-01T11:41:39.406Z,4.32
2022-11-01T11:44:42.268Z,8.68
2022-11-01T11:47:24.681Z,5.25
2022-11-01T11:49:56.778Z,4.30
2022-11-01T11:55:31.480Z,2.97
2022-11-01T11:58:00.900Z,3.22
2022-11-01T12:00:33.072Z,2.78
2022-11-01T12:03:09.109Z,7.95
2022-11-01T12:05:39.280Z,2.35
2022-11-01T12:08:26.271Z,3.85
2022-11-01T12:11:01.511Z,4.18
2022-11-01T12:13:37.950Z,9.75
2022-11-01T12:16:25.728Z,3.25
2022-11-01T12:18:58.160Z,4.68
2022-11-01T12:21:31.572Z,4.85
2022-11-01T12:24:07.819Z,2.08
2022-11-01T12:26:39.984Z,2.35
2022-11-01T12:29:24.743Z,2.60
2022-11-01T12:31:58.889Z,4.05
2022-11-01T12:34:39.731Z,4.20
2022-11-01T12:37:20.294Z,3.42
2022-11-01T12:39:58.104Z,2.08
2022-11-01T12:42:36.088Z,2.33
2022-11-01T12:47:49.958Z,1.80
2022-11-01T12:50:25.751Z,7.40
2022-11-01T12:53:03.108Z,7.22
2022-11-01T12:55:36.856Z,1.15
2022-11-01T12:58:15.841Z,1.23
2022-11-01T13:01:06.496Z,2.30
2022-11-01T13:03:49.864Z,0.35
2022-11-01T13:06:44.310Z,1.73
2022-11-01T13:09:24.204Z,2.40
2022-11-01T13:12:08.259Z,2.03
2022-11-01T13:14:58.758Z,1.33
2022-11-01T13:17:40.033Z,2.20
2022-11-01T13:20:30.737Z,1.58
2022-11-01T13:23:17.500Z,1.73
2022-11-01T13:25:55.756Z,3.78
2022-11-01T13:29:04.739Z,4.32
2022-11-01T13:31:49.501Z,1.13
2022-11-01T13:34:36.277Z,3.13
2022-11-01T13:37:18.615Z,5.07
2022-11-01T13:40:15.877Z,1.45
2022-11-01T13:42:54.854Z,1.25
2022-11-01T13:46:17.118Z,0.00
2022-11-01T13:49:20.891Z,0.40
2022-11-01T13:51:58.353Z,2.42
2022-11-01T13:54:33.585Z,0.25
2022-11-01T13:57:14.006Z,0.15
2022-11-01T13:59:55.688Z,0.52
2022-11-01T14:02:58.217Z,5.70
2022-11-01T14:05:46.578Z,1.70
2022-11-01T14:08:29.676Z,0.25
2022-11-01T14:10:58.902Z,8.05
2022-11-01T14:13:40.413Z,0.10
2022-11-01T14:16:28.371Z,2.72
2022-11-01T14:19:21.451Z,0.32
2022-11-01T14:22:00.608Z,0.40
2022-11-01T14:24:35.459Z,0.13
2022-11-01T14:27:25.667Z,4.38
2022-11-01T14:29:56.335Z,1.65
2022-11-01T14:32:31.059Z,0.63
2022-11-01T14:35:17.539Z,0.75
2022-11-01T14:37:57.547Z,2.05
2022-11-01T14:40:39.159Z,0.47
2022-11-01T14:43:19.887Z,0.10
2022-11-01T14:45:56.126Z,4.07
2022-11-01T14:48:32.295Z,1.27
2022-11-01T14:51:10.894Z,0.20
2022-11-01T14:53:41.794Z,0.38
2022-11-01T14:56:19.806Z,1.33
2022-11-01T14:58:49.413Z,0.10
2022-11-01T15:01:23.612Z,4.95
2022-11-01T15:03:56.865Z,0.65
2022-11-01T15:06:29.291Z,0.82
2022-11-01T15:09:03.154Z,0.75
2022-11-01T15:11:35.825Z,0.88
2022-11-01T15:14:10.317Z,0.45
2022-11-01T15:16:44.463Z,1.77
2022-11-01T15:19:23.236Z,5.13
2022-11-01T15:21:52.375Z,2.83
2022-11-01T15:24:27.347Z,1.20
2022-11-01T15:26:56.498Z,1.00
2022-11-01T15:29:26.301Z,0.63
2022-11-01T15:32:00.599Z,0.65
2022-11-01T15:34:32.176Z,0.93
2022-11-01T15:37:12.559Z,0.65
2022-11-01T15:39:43.146Z,5.20
2022-11-01T15:42:17.002Z,0.22
2022-11-01T15:44:46.446Z,0.57
2022-11-01T15:47:22.883Z,2.83
2022-11-01T15:49:58.080Z,0.82
2022-11-01T15:52:32.073Z,2.58
2022-11-01T15:55:13.147Z,2.45
2022-11-01T15:57:48.625Z,0.45
2022-11-01T16:00:22.426Z,1.77
2022-11-01T16:03:01.938Z,3.85
2022-11-01T16:05:36.654Z,1.20
2022-11-01T16:08:10.625Z,5.32
2022-11-01T16:10:46.035Z,3.00
2022-11-01T16:13:20.056Z,1.27
2022-11-01T16:16:06.427Z,0.70
2022-11-01T16:18:41.855Z,0.60
2022-11-01T16:21:30.110Z,0.82
2022-11-01T16:24:14.156Z,0.80
2022-11-01T16:27:00.415Z,0.52
2022-11-01T16:29:51.565Z,0.90
2022-11-01T16:32:26.335Z,3.28
2022-11-01T16:34:56.622Z,1.85
2022-11-01T16:37:27.731Z,1.88
2022-11-01T16:39:58.060Z,53.08
2022-11-01T16:42:29.678Z,0.38
2022-11-01T16:44:59.478Z,1.67
2022-11-01T16:47:28.751Z,3.38
2022-11-01T16:49:57.815Z,0.85
2022-11-01T16:52:26.883Z,0.82
2022-11-01T16:54:55.911Z,1.55
2022-11-01T16:57:30.277Z,0.77
2022-11-01T16:59:59.261Z,0.63
2022-11-01T17:02:31.654Z,2.08
2022-11-01T17:05:21.130Z,2.65
2022-11-01T17:07:50.289Z,0.93
2022-11-01T17:10:23.520Z,1.10
2022-11-01T17:12:57.861Z,3.28
2022-11-01T17:15:29.393Z,0.55
2022-11-01T17:17:58.683Z,0.60
2022-11-01T17:20:30.035Z,4.00
2022-11-01T17:23:00.359Z,0.40
2022-11-01T17:25:32.644Z,1.52
2022-11-01T17:28:03.354Z,1.33
2022-11-01T17:30:32.784Z,7.38
2022-11-01T17:33:01.881Z,1.52
2022-11-01T17:35:30.876Z,1.75
2022-11-01T17:38:00.175Z,0.75
2022-11-01T17:40:30.035Z,9.55
2022-11-01T17:42:59.171Z,1.30
2022-11-01T17:45:29.867Z,0.65
2022-11-01T17:47:59.385Z,1.25
2022-11-01T17:50:28.370Z,1.63
2022-11-01T17:52:57.378Z,7.68
2022-11-01T17:55:26.486Z,1.73
2022-11-01T17:57:55.668Z,1.38
2022-11-01T18:00:24.641Z,1.48
2022-11-01T18:02:55.083Z,6.43
2022-11-01T18:05:24.951Z,5.88
2022-11-01T18:07:57.157Z,0.95
2022-11-01T18:10:38.134Z,2.45
2022-11-01T18:13:34.193Z,5.45
2022-11-01T18:16:09.978Z,0.88
2022-11-01T18:19:17.395Z,0.57
2022-11-01T18:21:59.059Z,0.45
2022-11-01T18:24:36.904Z,1.23
2022-11-01T18:27:11.938Z,1.77
2022-11-01T18:29:47.421Z,1.27
2022-11-01T18:32:25.394Z,3.40
2022-11-01T18:35:06.832Z,7.85
2022-11-01T18:37:48.804Z,3.42
2022-11-01T18:40:25.947Z,0.70
2022-11-01T18:42:56.969Z,6.22
2022-11-01T18:45:33.923Z,0.40
2022-11-01T18:48:22.568Z,0.30
2022-11-01T18:51:03.860Z,5.20
2022-11-01T18:53:35.366Z,0.50
2022-11-01T18:56:21.638Z,1.08
2022-11-01T18:58:52.557Z,1.27
2022-11-01T19:01:24.581Z,1.90
2022-11-01T19:04:03.298Z,3.42
2022-11-01T19:06:34.686Z,5.72
2022-11-01T19:09:21.758Z,2.88
2022-11-01T19:11:58.745Z,0.35
2022-11-01T19:14:28.911Z,1.13
2022-11-01T19:16:59.048Z,1.45
2022-11-01T19:19:28.143Z,4.20
2022-11-01T19:22:05.057Z,1.27
2022-11-01T19:24:38.958Z,1.15
2022-11-01T19:27:28.611Z,0.50
2022-11-01T19:30:00.787Z,2.53
2022-11-01T19:32:30.451Z,0.40
2022-11-01T19:35:01.421Z,1.65
2022-11-01T19:37:36.535Z,2.67
2022-11-01T19:40:27.401Z,1.33
2022-11-01T19:42:58.752Z,0.82
2022-11-01T19:45:34.180Z,1.40
2022-11-01T19:48:06.083Z,0.80
2022-11-01T19:50:42.792Z,0.47
2022-11-01T19:53:23.982Z,2.78
2022-11-01T19:56:00.683Z,0.50
2022-11-01T19:58:42.154Z,0.50
2022-11-01T20:01:41.036Z,0.35
2022-11-01T20:04:26.951Z,0.45
2022-11-01T20:07:03.682Z,3.50
2022-11-01T20:09:39.034Z,0.63
2022-11-01T20:12:09.729Z,2.20
2022-11-01T20:14:39.205Z,0.73
2022-11-01T20:17:08.306Z,5.93
2022-11-01T20:19:37.548Z,0.08
2022-11-01T20:22:07.102Z,1.33
2022-11-01T20:24:37.453Z,1.55
2022-11-01T20:27:06.407Z,0.47
2022-11-01T20:29:35.547Z,0.52
2022-11-01T20:32:04.841Z,0.32
2022-11-01T20:34:33.939Z,3.50
2022-11-01T20:39:54.216Z,0.88
2022-11-01T20:42:24.594Z,8.15
2022-11-01T20:44:53.583Z,0.63
2022-11-01T20:47:22.792Z,0.30
2022-11-01T20:49:51.863Z,2.17
2022-11-01T20:55:14.219Z,4.70
2022-11-01T20:57:43.705Z,1.23
2022-11-01T21:00:14.697Z,0.98
2022-11-01T21:02:44.556Z,1.10
2022-11-01T21:05:24.064Z,1.40
2022-11-01T21:08:02.362Z,0.95
2022-11-01T21:10:36.176Z,6.03
2022-11-01T21:13:21.579Z,0.38
2022-11-01T21:15:52.052Z,0.68
2022-11-01T21:18:48.294Z,0.65
2022-11-01T21:21:45.475Z,0.32
2022-11-01T21:24:34.730Z,0.22
2022-11-01T21:30:21.788Z,0.30
2022-11-01T21:32:52.893Z,1.85
2022-11-01T21:35:41.302Z,2.17
2022-11-01T21:38:39.259Z,3.42
2022-11-01T21:41:34.488Z,0.52
2022-11-01T21:44:23.199Z,0.30
2022-11-01T21:46:55.314Z,0.57
2022-11-01T21:49:30.788Z,0.82
2022-11-01T21:52:01.810Z,2.42
2022-11-01T21:54:34.106Z,1.55
2022-11-01T21:57:05.165Z,1.15
2022-11-01T21:59:39.437Z,2.13
2022-11-01T22:02:12.476Z,2.10
2022-11-01T22:04:42.112Z,0.47
2022-11-01T22:07:12.448Z,2.47
2022-11-01T22:09:41.796Z,1.15
2022-11-01T22:12:11.232Z,1.52
2022-11-01T22:14:41.673Z,5.68
2022-11-01T22:17:10.735Z,1.08
2022-11-01T22:19:39.784Z,0.68
2022-11-01T22:22:08.856Z,1.27
2022-11-01T22:24:38.021Z,2.38
2022-11-01T22:27:06.888Z,0.32
2022-11-01T22:29:36.024Z,3.55
2022-11-01T22:32:06.746Z,1.73
2022-11-01T22:34:35.866Z,0.43
2022-11-01T22:37:13.705Z,1.85
2022-11-01T22:39:43.521Z,0.47
2022-11-01T22:42:18.325Z,0.20
2022-11-01T22:44:51.457Z,5.93
2022-11-01T22:47:28.690Z,4.90
2022-11-01T22:50:04.037Z,1.35
2022-11-01T22:52:36.844Z,0.75
2022-11-01T22:55:22.605Z,1.08
2022-11-01T22:57:56.362Z,0.22
2022-11-01T23:00:31.924Z,0.75
2022-11-01T23:03:16.208Z,3.30
2022-11-01T23:05:45.259Z,0.30
2022-11-01T23:08:25.058Z,2.90
2022-11-01T23:10:54.989Z,2.38
2022-11-01T23:13:45.724Z,0.22
2022-11-01T23:16:26.473Z,2.67
2022-11-01T23:19:02.129Z,0.40
2022-11-01T23:21:31.528Z,5.90
2022-11-01T23:24:01.961Z,0.55
2022-11-01T23:26:32.736Z,0.90
2022-11-01T23:29:03.452Z,0.55
2022-11-01T23:31:32.742Z,0.28
2022-11-01T23:34:03.234Z,0.50
2022-11-01T23:36:37.665Z,0.20
2022-11-01T23:39:12.309Z,0.55
2022-11-01T23:41:44.531Z,3.83
2022-11-01T23:44:27.067Z,0.20
2022-11-01T23:47:02.159Z,0.10
2022-11-01T23:49:36.008Z,0.35
2022-11-01T23:52:21.493Z,0.40
2022-11-01T23:54:50.451Z,0.13
2022-11-01T23:57:22.953Z,0.73
2022-11-01T23:59:53.900Z,0.35
